sensor_id;sensor_type;location;lat;lon;timestamp;temperature;humidity
64924;HTU21D;51436;44.692;39.214;2023-02-01T00:11:32;6.40;73.00
64924;HTU21D;51436;44.692;39.214;2023-02-01T00:13:58;6.42;72.97
64924;HTU21D;51436;44.692;39.214;2023-02-01T00:16:27;6.41;72.96
64924;HTU21D;51436;44.692;39.214;2023-02-01T00:19:14;6.40;72.77
64924;HTU21D;51436;44.692;39.214;2023-02-01T00:21:41;6.43;72.95
64924;HTU21D;51436;44.692;39.214;2023-02-01T00:24:09;6.44;72.86
64924;HTU21D;51436;44.692;39.214;2023-02-01T00:26:38;6.44;72.83
64924;HTU21D;51436;44.692;39.214;2023-02-01T00:29:11;6.42;72.86
64924;HTU21D;51436;44.692;39.214;2023-02-01T00:31:38;6.42;72.93
64924;HTU21D;51436;44.692;39.214;2023-02-01T00:34:04;6.43;72.89
64924;HTU21D;51436;44.692;39.214;2023-02-01T00:36:30;6.40;72.97
64924;HTU21D;51436;44.692;39.214;2023-02-01T00:38:57;6.34;73.16
64924;HTU21D;51436;44.692;39.214;2023-02-01T00:41:25;6.30;73.28
64924;HTU21D;51436;44.692;39.214;2023-02-01T00:43:54;6.29;73.20
64924;HTU21D;51436;44.692;39.214;2023-02-01T00:46:21;6.25;73.34
64924;HTU21D;51436;44.692;39.214;2023-02-01T00:48:48;6.20;73.49
64924;HTU21D;51436;44.692;39.214;2023-02-01T00:51:26;6.21;73.48
64924;HTU21D;51436;44.692;39.214;2023-02-01T00:53:53;6.25;73.35
64924;HTU21D;51436;44.692;39.214;2023-02-01T00:56:20;6.28;73.25
64924;HTU21D;51436;44.692;39.214;2023-02-01T00:58:46;6.27;73.28
64924;HTU21D;51436;44.692;39.214;2023-02-01T01:03:43;6.29;73.15
64924;HTU21D;51436;44.692;39.214;2023-02-01T01:06:15;6.30;73.05
64924;HTU21D;51436;44.692;39.214;2023-02-01T01:08:42;6.27;73.23
64924;HTU21D;51436;44.692;39.214;2023-02-01T01:11:14;6.24;73.29
64924;HTU21D;51436;44.692;39.214;2023-02-01T01:13:41;6.20;73.41
64924;HTU21D;51436;44.692;39.214;2023-02-01T01:16:10;6.21;73.46
64924;HTU21D;51436;44.692;39.214;2023-02-01T01:18:36;6.20;73.48
64924;HTU21D;51436;44.692;39.214;2023-02-01T01:21:07;6.15;73.45
64924;HTU21D;51436;44.692;39.214;2023-02-01T01:23:35;6.14;73.57
64924;HTU21D;51436;44.692;39.214;2023-02-01T01:26:08;6.11;73.57
64924;HTU21D;51436;44.692;39.214;2023-02-01T01:28:35;6.00;73.68
64924;HTU21D;51436;44.692;39.214;2023-02-01T01:31:02;6.05;73.59
64924;HTU21D;51436;44.692;39.214;2023-02-01T01:33:28;6.07;73.61
64924;HTU21D;51436;44.692;39.214;2023-02-01T01:35:55;6.10;73.53
64924;HTU21D;51436;44.692;39.214;2023-02-01T01:38:21;6.15;73.38
64924;HTU21D;51436;44.692;39.214;2023-02-01T01:40:48;6.17;73.30
64924;HTU21D;51436;44.692;39.214;2023-02-01T01:43:19;6.19;73.28
64924;HTU21D;51436;44.692;39.214;2023-02-01T01:45:49;6.22;73.25
64924;HTU21D;51436;44.692;39.214;2023-02-01T01:48:25;6.23;73.15
64924;HTU21D;51436;44.692;39.214;2023-02-01T01:53:28;6.21;73.12
64924;HTU21D;51436;44.692;39.214;2023-02-01T01:55:56;6.21;73.25
64924;HTU21D;51436;44.692;39.214;2023-02-01T01:58:25;6.20;73.17
64924;HTU21D;51436;44.692;39.214;2023-02-01T02:00:53;6.21;73.18
64924;HTU21D;51436;44.692;39.214;2023-02-01T02:03:31;6.20;73.19
64924;HTU21D;51436;44.692;39.214;2023-02-01T02:06:02;6.16;73.25
64924;HTU21D;51436;44.692;39.214;2023-02-01T02:08:29;6.15;73.40
64924;HTU21D;51436;44.692;39.214;2023-02-01T02:10:55;6.16;73.41
64924;HTU21D;51436;44.692;39.214;2023-02-01T02:13:35;6.14;73.30
64924;HTU21D;51436;44.692;39.214;2023-02-01T02:30:17;5.99;73.52
64924;HTU21D;51436;44.692;39.214;2023-02-01T02:41:18;5.98;73.52
64924;HTU21D;51436;44.692;39.214;2023-02-01T02:44:11;5.97;73.65
64924;HTU21D;51436;44.692;39.214;2023-02-01T02:47:01;5.98;73.60
64924;HTU21D;51436;44.692;39.214;2023-02-01T02:52:45;5.97;73.59
64924;HTU21D;51436;44.692;39.214;2023-02-01T02:55:33;5.98;73.64
64924;HTU21D;51436;44.692;39.214;2023-02-01T02:58:04;6.02;73.53
64924;HTU21D;51436;44.692;39.214;2023-02-01T03:00:50;6.00;73.54
64924;HTU21D;51436;44.692;39.214;2023-02-01T03:03:38;5.96;73.66
64924;HTU21D;51436;44.692;39.214;2023-02-01T03:06:23;5.96;73.64
64924;HTU21D;51436;44.692;39.214;2023-02-01T03:08:51;5.95;73.69
64924;HTU21D;51436;44.692;39.214;2023-02-01T03:11:24;5.95;73.69
64924;HTU21D;51436;44.692;39.214;2023-02-01T03:14:12;5.93;73.73
64924;HTU21D;51436;44.692;39.214;2023-02-01T03:16:46;5.91;73.71
64924;HTU21D;51436;44.692;39.214;2023-02-01T03:19:22;5.86;73.86
64924;HTU21D;51436;44.692;39.214;2023-02-01T03:21:59;5.87;73.77
64924;HTU21D;51436;44.692;39.214;2023-02-01T03:27:24;5.87;73.67
64924;HTU21D;51436;44.692;39.214;2023-02-01T03:32:28;5.89;73.80
64924;HTU21D;51436;44.692;39.214;2023-02-01T03:34:55;5.87;73.86
64924;HTU21D;51436;44.692;39.214;2023-02-01T03:37:28;5.85;73.80
64924;HTU21D;51436;44.692;39.214;2023-02-01T03:40:01;5.82;73.81
64924;HTU21D;51436;44.692;39.214;2023-02-01T03:42:42;5.79;73.83
64924;HTU21D;51436;44.692;39.214;2023-02-01T03:45:18;5.77;73.99
64924;HTU21D;51436;44.692;39.214;2023-02-01T03:47:50;5.80;73.91
64924;HTU21D;51436;44.692;39.214;2023-02-01T03:50:21;5.79;73.86
64924;HTU21D;51436;44.692;39.214;2023-02-01T03:53:02;5.76;73.83
64924;HTU21D;51436;44.692;39.214;2023-02-01T03:55:31;5.75;73.96
64924;HTU21D;51436;44.692;39.214;2023-02-01T03:58:06;5.75;73.85
64924;HTU21D;51436;44.692;39.214;2023-02-01T04:00:33;5.76;73.87
64924;HTU21D;51436;44.692;39.214;2023-02-01T04:03:02;5.77;73.83
64924;HTU21D;51436;44.692;39.214;2023-02-01T04:05:29;5.78;73.84
64924;HTU21D;51436;44.692;39.214;2023-02-01T04:08:01;5.79;73.77
64924;HTU21D;51436;44.692;39.214;2023-02-01T04:10:27;5.80;73.73
64924;HTU21D;51436;44.692;39.214;2023-02-01T04:12:54;5.80;73.74
64924;HTU21D;51436;44.692;39.214;2023-02-01T04:15:20;5.81;73.73
64924;HTU21D;51436;44.692;39.214;2023-02-01T04:17:46;5.83;73.68
64924;HTU21D;51436;44.692;39.214;2023-02-01T04:20:13;5.81;73.70
64924;HTU21D;51436;44.692;39.214;2023-02-01T04:22:39;5.77;73.80
64924;HTU21D;51436;44.692;39.214;2023-02-01T04:25:07;5.78;73.77
64924;HTU21D;51436;44.692;39.214;2023-02-01T04:27:34;5.80;73.69
64924;HTU21D;51436;44.692;39.214;2023-02-01T04:30:01;5.82;73.60
64924;HTU21D;51436;44.692;39.214;2023-02-01T04:32:27;5.83;73.54
64924;HTU21D;51436;44.692;39.214;2023-02-01T04:34:54;5.82;73.56
64924;HTU21D;51436;44.692;39.214;2023-02-01T04:37:20;5.85;73.47
64924;HTU21D;51436;44.692;39.214;2023-02-01T04:39:47;5.83;73.47
64924;HTU21D;51436;44.692;39.214;2023-02-01T04:42:13;5.79;73.58
64924;HTU21D;51436;44.692;39.214;2023-02-01T04:44:39;5.78;73.60
64924;HTU21D;51436;44.692;39.214;2023-02-01T04:47:08;5.75;73.70
64924;HTU21D;51436;44.692;39.214;2023-02-01T04:49:35;5.75;73.70
64924;HTU21D;51436;44.692;39.214;2023-02-01T04:52:01;5.78;73.64
64924;HTU21D;51436;44.692;39.214;2023-02-01T04:54:28;5.78;73.58
64924;HTU21D;51436;44.692;39.214;2023-02-01T04:56:54;5.77;73.58
64924;HTU21D;51436;44.692;39.214;2023-02-01T04:59:22;5.70;73.75
64924;HTU21D;51436;44.692;39.214;2023-02-01T05:01:48;5.71;73.76
64924;HTU21D;51436;44.692;39.214;2023-02-01T05:04:15;5.76;73.69
64924;HTU21D;51436;44.692;39.214;2023-02-01T05:06:41;5.78;73.60
64924;HTU21D;51436;44.692;39.214;2023-02-01T05:09:07;5.83;73.50
64924;HTU21D;51436;44.692;39.214;2023-02-01T05:11:34;5.81;73.51
64924;HTU21D;51436;44.692;39.214;2023-02-01T05:14:18;5.80;73.56
64924;HTU21D;51436;44.692;39.214;2023-02-01T05:16:45;5.83;73.56
64924;HTU21D;51436;44.692;39.214;2023-02-01T05:19:11;5.89;73.41
64924;HTU21D;51436;44.692;39.214;2023-02-01T05:21:37;5.93;73.26
64924;HTU21D;51436;44.692;39.214;2023-02-01T05:24:04;5.90;73.24
64924;HTU21D;51436;44.692;39.214;2023-02-01T05:26:42;5.86;73.22
64924;HTU21D;51436;44.692;39.214;2023-02-01T05:29:09;5.82;73.38
64924;HTU21D;51436;44.692;39.214;2023-02-01T05:31:36;5.77;73.44
64924;HTU21D;51436;44.692;39.214;2023-02-01T05:34:03;5.75;73.56
64924;HTU21D;51436;44.692;39.214;2023-02-01T05:36:30;5.78;73.51
64924;HTU21D;51436;44.692;39.214;2023-02-01T05:38:56;5.79;73.44
64924;HTU21D;51436;44.692;39.214;2023-02-01T05:41:23;5.77;73.55
64924;HTU21D;51436;44.692;39.214;2023-02-01T05:43:49;5.78;73.53
64924;HTU21D;51436;44.692;39.214;2023-02-01T05:46:16;5.79;73.50
64924;HTU21D;51436;44.692;39.214;2023-02-01T05:48:43;5.80;73.53
64924;HTU21D;51436;44.692;39.214;2023-02-01T05:51:10;5.85;73.42
64924;HTU21D;51436;44.692;39.214;2023-02-01T05:53:37;5.87;73.43
64924;HTU21D;51436;44.692;39.214;2023-02-01T05:56:04;5.93;73.40
64924;HTU21D;51436;44.692;39.214;2023-02-01T05:58:30;5.94;73.41
64924;HTU21D;51436;44.692;39.214;2023-02-01T06:00:59;5.96;73.44
64924;HTU21D;51436;44.692;39.214;2023-02-01T06:03:27;5.98;73.44
64924;HTU21D;51436;44.692;39.214;2023-02-01T06:05:54;6.04;73.28
64924;HTU21D;51436;44.692;39.214;2023-02-01T06:08:20;6.09;73.21
64924;HTU21D;51436;44.692;39.214;2023-02-01T06:22:11;5.99;73.11
64924;HTU21D;51436;44.692;39.214;2023-02-01T06:24:38;5.96;73.13
64924;HTU21D;51436;44.692;39.214;2023-02-01T06:27:05;5.89;73.30
64924;HTU21D;51436;44.692;39.214;2023-02-01T06:29:33;5.84;73.39
64924;HTU21D;51436;44.692;39.214;2023-02-01T06:31:59;5.81;73.51
64924;HTU21D;51436;44.692;39.214;2023-02-01T06:34:25;5.83;73.44
64924;HTU21D;51436;44.692;39.214;2023-02-01T06:36:52;5.91;73.27
64924;HTU21D;51436;44.692;39.214;2023-02-01T06:39:19;5.91;73.21
64924;HTU21D;51436;44.692;39.214;2023-02-01T06:41:47;5.90;73.27
64924;HTU21D;51436;44.692;39.214;2023-02-01T06:44:14;5.86;73.35
64924;HTU21D;51436;44.692;39.214;2023-02-01T06:46:40;5.86;73.46
64924;HTU21D;51436;44.692;39.214;2023-02-01T06:49:07;5.87;73.41
64924;HTU21D;51436;44.692;39.214;2023-02-01T06:51:34;5.92;73.38
64924;HTU21D;51436;44.692;39.214;2023-02-01T06:54:01;5.92;73.41
64924;HTU21D;51436;44.692;39.214;2023-02-01T06:56:27;5.98;73.35
64924;HTU21D;51436;44.692;39.214;2023-02-01T06:58:54;6.06;73.18
64924;HTU21D;51436;44.692;39.214;2023-02-01T07:01:20;6.10;73.06
64924;HTU21D;51436;44.692;39.214;2023-02-01T07:03:50;6.11;73.06
64924;HTU21D;51436;44.692;39.214;2023-02-01T07:06:17;6.11;73.08
64924;HTU21D;51436;44.692;39.214;2023-02-01T07:08:44;6.16;72.99
64924;HTU21D;51436;44.692;39.214;2023-02-01T07:11:12;6.22;72.78
64924;HTU21D;51436;44.692;39.214;2023-02-01T07:13:39;6.29;72.83
64924;HTU21D;51436;44.692;39.214;2023-02-01T07:16:11;6.33;72.64
64924;HTU21D;51436;44.692;39.214;2023-02-01T07:18:38;6.28;72.66
64924;HTU21D;51436;44.692;39.214;2023-02-01T07:21:05;6.27;72.70
64924;HTU21D;51436;44.692;39.214;2023-02-01T07:23:31;6.24;72.89
64924;HTU21D;51436;44.692;39.214;2023-02-01T07:26:00;6.19;72.93
64924;HTU21D;51436;44.692;39.214;2023-02-01T07:28:29;6.16;72.94
64924;HTU21D;51436;44.692;39.214;2023-02-01T07:31:05;6.14;72.86
64924;HTU21D;51436;44.692;39.214;2023-02-01T07:33:32;6.15;72.95
64924;HTU21D;51436;44.692;39.214;2023-02-01T07:36:01;6.13;72.86
64924;HTU21D;51436;44.692;39.214;2023-02-01T07:38:28;6.17;72.93
64924;HTU21D;51436;44.692;39.214;2023-02-01T07:41:01;6.24;72.63
64924;HTU21D;51436;44.692;39.214;2023-02-01T07:43:29;6.25;72.79
64924;HTU21D;51436;44.692;39.214;2023-02-01T07:45:55;6.38;72.63
64924;HTU21D;51436;44.692;39.214;2023-02-01T07:48:25;6.55;72.20
64924;HTU21D;51436;44.692;39.214;2023-02-01T07:51:00;6.68;71.92
64924;HTU21D;51436;44.692;39.214;2023-02-01T07:53:27;6.78;71.86
64924;HTU21D;51436;44.692;39.214;2023-02-01T07:55:54;6.87;71.69
64924;HTU21D;51436;44.692;39.214;2023-02-01T07:58:22;7.00;71.38
64924;HTU21D;51436;44.692;39.214;2023-02-01T08:00:49;7.03;71.30
64924;HTU21D;51436;44.692;39.214;2023-02-01T08:03:34;6.96;71.59
64924;HTU21D;51436;44.692;39.214;2023-02-01T08:06:00;6.96;71.59
64924;HTU21D;51436;44.692;39.214;2023-02-01T08:08:26;7.00;71.51
64924;HTU21D;51436;44.692;39.214;2023-02-01T08:11:00;6.96;71.45
64924;HTU21D;51436;44.692;39.214;2023-02-01T08:13:27;6.89;71.64
64924;HTU21D;51436;44.692;39.214;2023-02-01T08:16:05;6.81;71.78
64924;HTU21D;51436;44.692;39.214;2023-02-01T08:18:32;6.73;71.96
64924;HTU21D;51436;44.692;39.214;2023-02-01T08:21:04;6.67;72.13
64924;HTU21D;51436;44.692;39.214;2023-02-01T08:23:31;6.64;72.16
64924;HTU21D;51436;44.692;39.214;2023-02-01T08:26:16;6.70;72.03
64924;HTU21D;51436;44.692;39.214;2023-02-01T08:28:46;6.76;71.85
64924;HTU21D;51436;44.692;39.214;2023-02-01T08:31:15;6.82;71.81
64924;HTU21D;51436;44.692;39.214;2023-02-01T08:33:43;6.94;71.59
64924;HTU21D;51436;44.692;39.214;2023-02-01T08:36:10;7.04;71.44
64924;HTU21D;51436;44.692;39.214;2023-02-01T08:38:38;7.15;71.18
64924;HTU21D;51436;44.692;39.214;2023-02-01T08:41:09;7.20;71.12
64924;HTU21D;51436;44.692;39.214;2023-02-01T08:43:37;7.26;71.05
64924;HTU21D;51436;44.692;39.214;2023-02-01T08:46:04;7.31;71.02
64924;HTU21D;51436;44.692;39.214;2023-02-01T08:48:32;7.40;70.81
64924;HTU21D;51436;44.692;39.214;2023-02-01T08:51:01;7.44;70.62
64924;HTU21D;51436;44.692;39.214;2023-02-01T08:53:29;7.45;70.61
64924;HTU21D;51436;44.692;39.214;2023-02-01T08:55:55;7.39;70.61
64924;HTU21D;51436;44.692;39.214;2023-02-01T08:58:22;7.30;70.93
64924;HTU21D;51436;44.692;39.214;2023-02-01T09:00:49;7.31;70.94
64924;HTU21D;51436;44.692;39.214;2023-02-01T09:03:15;7.38;70.68
64924;HTU21D;51436;44.692;39.214;2023-02-01T09:05:42;7.33;70.77
64924;HTU21D;51436;44.692;39.214;2023-02-01T09:08:09;7.32;70.86
64924;HTU21D;51436;44.692;39.214;2023-02-01T09:10:36;7.37;70.63
64924;HTU21D;51436;44.692;39.214;2023-02-01T09:13:02;7.35;70.67
64924;HTU21D;51436;44.692;39.214;2023-02-01T09:15:29;7.38;70.64
64924;HTU21D;51436;44.692;39.214;2023-02-01T09:17:55;7.35;70.66
64924;HTU21D;51436;44.692;39.214;2023-02-01T09:20:21;7.32;70.74
64924;HTU21D;51436;44.692;39.214;2023-02-01T09:22:55;7.32;70.70
64924;HTU21D;51436;44.692;39.214;2023-02-01T09:25:21;7.37;70.63
64924;HTU21D;51436;44.692;39.214;2023-02-01T09:27:47;7.39;70.51
64924;HTU21D;51436;44.692;39.214;2023-02-01T09:30:14;7.43;70.54
64924;HTU21D;51436;44.692;39.214;2023-02-01T09:32:40;7.58;70.19
64924;HTU21D;51436;44.692;39.214;2023-02-01T09:35:07;7.67;69.89
64924;HTU21D;51436;44.692;39.214;2023-02-01T09:37:34;7.64;69.84
64924;HTU21D;51436;44.692;39.214;2023-02-01T09:40:00;7.71;69.86
64924;HTU21D;51436;44.692;39.214;2023-02-01T09:42:55;7.77;69.81
64924;HTU21D;51436;44.692;39.214;2023-02-01T09:45:50;7.67;69.83
64924;HTU21D;51436;44.692;39.214;2023-02-01T09:48:21;7.64;69.96
64924;HTU21D;51436;44.692;39.214;2023-02-01T09:50:56;7.63;69.97
64924;HTU21D;51436;44.692;39.214;2023-02-01T09:53:36;7.63;70.02
64924;HTU21D;51436;44.692;39.214;2023-02-01T09:56:24;7.74;69.97
64924;HTU21D;51436;44.692;39.214;2023-02-01T09:59:26;7.90;69.78
64924;HTU21D;51436;44.692;39.214;2023-02-01T10:01:56;8.03;69.29
64924;HTU21D;51436;44.692;39.214;2023-02-01T10:04:25;8.12;69.10
64924;HTU21D;51436;44.692;39.214;2023-02-01T10:13:04;8.39;68.97
64924;HTU21D;51436;44.692;39.214;2023-02-01T10:18:39;8.52;68.66
64924;HTU21D;51436;44.692;39.214;2023-02-01T10:26:39;8.59;68.35
64924;HTU21D;51436;44.692;39.214;2023-02-01T10:29:17;8.52;68.52
64924;HTU21D;51436;44.692;39.214;2023-02-01T10:31:45;8.44;68.43
64924;HTU21D;51436;44.692;39.214;2023-02-01T10:34:19;8.34;68.77
64924;HTU21D;51436;44.692;39.214;2023-02-01T10:39:56;8.14;69.07
64924;HTU21D;51436;44.692;39.214;2023-02-01T10:42:28;8.11;69.02
64924;HTU21D;51436;44.692;39.214;2023-02-01T10:44:58;8.14;69.07
64924;HTU21D;51436;44.692;39.214;2023-02-01T10:47:25;8.22;68.85
64924;HTU21D;51436;44.692;39.214;2023-02-01T10:49:54;8.29;68.58
64924;HTU21D;51436;44.692;39.214;2023-02-01T10:52:35;8.31;68.68
64924;HTU21D;51436;44.692;39.214;2023-02-01T10:58:06;8.24;68.57
64924;HTU21D;51436;44.692;39.214;2023-02-01T11:01:02;8.26;68.68
64924;HTU21D;51436;44.692;39.214;2023-02-01T11:03:46;8.30;68.64
64924;HTU21D;51436;44.692;39.214;2023-02-01T11:06:31;8.33;68.50
64924;HTU21D;51436;44.692;39.214;2023-02-01T11:09:08;8.33;68.40
64924;HTU21D;51436;44.692;39.214;2023-02-01T11:11:59;8.27;68.48
64924;HTU21D;51436;44.692;39.214;2023-02-01T11:14:37;8.21;68.74
64924;HTU21D;51436;44.692;39.214;2023-02-01T11:17:21;8.29;68.55
64924;HTU21D;51436;44.692;39.214;2023-02-01T11:20:01;8.33;68.34
64924;HTU21D;51436;44.692;39.214;2023-02-01T11:22:28;8.33;68.16
64924;HTU21D;51436;44.692;39.214;2023-02-01T11:24:56;8.30;68.26
64924;HTU21D;51436;44.692;39.214;2023-02-01T11:27:24;8.30;68.24
64924;HTU21D;51436;44.692;39.214;2023-02-01T11:29:54;8.33;68.17
64924;HTU21D;51436;44.692;39.214;2023-02-01T11:32:23;8.37;68.19
64924;HTU21D;51436;44.692;39.214;2023-02-01T11:34:57;8.45;68.06
64924;HTU21D;51436;44.692;39.214;2023-02-01T11:37:29;8.43;68.07
64924;HTU21D;51436;44.692;39.214;2023-02-01T11:39:58;8.39;68.04
64924;HTU21D;51436;44.692;39.214;2023-02-01T11:42:26;8.30;68.18
64924;HTU21D;51436;44.692;39.214;2023-02-01T11:45:20;8.22;68.42
64924;HTU21D;51436;44.692;39.214;2023-02-01T11:47:52;8.19;68.36
64924;HTU21D;51436;44.692;39.214;2023-02-01T11:50:28;8.26;68.14
64924;HTU21D;51436;44.692;39.214;2023-02-01T12:07:41;8.26;68.33
64924;HTU21D;51436;44.692;39.214;2023-02-01T12:33:43;8.39;68.04
64924;HTU21D;51436;44.692;39.214;2023-02-01T12:42:03;8.49;67.83
64924;HTU21D;51436;44.692;39.214;2023-02-01T12:44:56;8.43;67.80
64924;HTU21D;51436;44.692;39.214;2023-02-01T12:47:38;8.37;67.95
64924;HTU21D;51436;44.692;39.214;2023-02-01T12:50:33;8.35;68.10
64924;HTU21D;51436;44.692;39.214;2023-02-01T12:56:07;8.39;67.89
64924;HTU21D;51436;44.692;39.214;2023-02-01T12:58:46;8.43;67.91
64924;HTU21D;51436;44.692;39.214;2023-02-01T13:01:21;8.36;67.98
64924;HTU21D;51436;44.692;39.214;2023-02-01T13:04:12;8.23;68.45
64924;HTU21D;51436;44.692;39.214;2023-02-01T13:10:15;8.15;68.41
64924;HTU21D;51436;44.692;39.214;2023-02-01T13:13:00;8.12;68.42
64924;HTU21D;51436;44.692;39.214;2023-02-01T13:15:36;8.07;68.48
64924;HTU21D;51436;44.692;39.214;2023-02-01T13:18:10;8.03;68.51
64924;HTU21D;51436;44.692;39.214;2023-02-01T13:21:04;7.99;68.70
64924;HTU21D;51436;44.692;39.214;2023-02-01T13:23:35;7.94;68.78
64924;HTU21D;51436;44.692;39.214;2023-02-01T13:26:02;7.91;68.91
64924;HTU21D;51436;44.692;39.214;2023-02-01T13:28:50;7.82;69.01
64924;HTU21D;51436;44.692;39.214;2023-02-01T13:36:49;7.59;69.44
64924;HTU21D;51436;44.692;39.214;2023-02-01T13:39:42;7.55;69.49
64924;HTU21D;51436;44.692;39.214;2023-02-01T13:42:42;7.48;69.58
64924;HTU21D;51436;44.692;39.214;2023-02-01T13:45:16;7.49;69.78
64924;HTU21D;51436;44.692;39.214;2023-02-01T13:47:49;7.50;69.69
64924;HTU21D;51436;44.692;39.214;2023-02-01T13:50:26;7.45;69.76
64924;HTU21D;51436;44.692;39.214;2023-02-01T13:55:34;7.37;70.10
64924;HTU21D;51436;44.692;39.214;2023-02-01T13:58:14;7.38;70.07
64924;HTU21D;51436;44.692;39.214;2023-02-01T14:00:42;7.41;70.09
64924;HTU21D;51436;44.692;39.214;2023-02-01T14:03:21;7.38;69.98
64924;HTU21D;51436;44.692;39.214;2023-02-01T14:08:37;7.32;70.30
64924;HTU21D;51436;44.692;39.214;2023-02-01T14:11:04;7.37;70.36
64924;HTU21D;51436;44.692;39.214;2023-02-01T14:13:41;7.38;70.23
64924;HTU21D;51436;44.692;39.214;2023-02-01T14:16:13;7.34;70.28
64924;HTU21D;51436;44.692;39.214;2023-02-01T14:21:30;7.37;70.27
64924;HTU21D;51436;44.692;39.214;2023-02-01T14:24:25;7.38;70.22
64924;HTU21D;51436;44.692;39.214;2023-02-01T14:26:57;7.40;70.29
64924;HTU21D;51436;44.692;39.214;2023-02-01T14:32:00;7.44;70.22
64924;HTU21D;51436;44.692;39.214;2023-02-01T14:34:56;7.45;70.13
64924;HTU21D;51436;44.692;39.214;2023-02-01T14:37:29;7.44;70.28
64924;HTU21D;51436;44.692;39.214;2023-02-01T14:47:47;7.41;70.48
64924;HTU21D;51436;44.692;39.214;2023-02-01T14:58:51;7.45;70.36
64924;HTU21D;51436;44.692;39.214;2023-02-01T15:01:26;7.43;70.47
64924;HTU21D;51436;44.692;39.214;2023-02-01T15:04:17;7.45;70.45
64924;HTU21D;51436;44.692;39.214;2023-02-01T15:06:55;7.46;70.45
64924;HTU21D;51436;44.692;39.214;2023-02-01T15:09:43;7.45;70.39
64924;HTU21D;51436;44.692;39.214;2023-02-01T15:17:56;7.47;70.43
64924;HTU21D;51436;44.692;39.214;2023-02-01T15:20:25;7.47;70.49
64924;HTU21D;51436;44.692;39.214;2023-02-01T15:22:56;7.47;70.47
64924;HTU21D;51436;44.692;39.214;2023-02-01T15:25:27;7.46;70.51
64924;HTU21D;51436;44.692;39.214;2023-02-01T15:27:55;7.44;70.55
64924;HTU21D;51436;44.692;39.214;2023-02-01T15:30:27;7.42;70.57
64924;HTU21D;51436;44.692;39.214;2023-02-01T15:35:52;7.35;70.72
64924;HTU21D;51436;44.692;39.214;2023-02-01T15:41:11;7.28;70.79
64924;HTU21D;51436;44.692;39.214;2023-02-01T15:44:02;7.29;70.95
64924;HTU21D;51436;44.692;39.214;2023-02-01T15:46:39;7.26;70.91
64924;HTU21D;51436;44.692;39.214;2023-02-01T15:51:45;7.20;71.13
64924;HTU21D;51436;44.692;39.214;2023-02-01T15:54:17;7.19;71.10
64924;HTU21D;51436;44.692;39.214;2023-02-01T15:56:52;7.19;71.06
64924;HTU21D;51436;44.692;39.214;2023-02-01T15:59:21;7.19;71.09
64924;HTU21D;51436;44.692;39.214;2023-02-01T16:01:49;7.18;71.13
64924;HTU21D;51436;44.692;39.214;2023-02-01T16:04:21;7.19;71.13
64924;HTU21D;51436;44.692;39.214;2023-02-01T16:06:53;7.14;71.17
64924;HTU21D;51436;44.692;39.214;2023-02-01T16:09:24;7.13;71.16
64924;HTU21D;51436;44.692;39.214;2023-02-01T16:12:01;7.14;71.11
64924;HTU21D;51436;44.692;39.214;2023-02-01T16:14:28;7.14;71.07
64924;HTU21D;51436;44.692;39.214;2023-02-01T16:16:57;7.10;71.11
64924;HTU21D;51436;44.692;39.214;2023-02-01T16:19:24;7.08;71.20
64924;HTU21D;51436;44.692;39.214;2023-02-01T16:21:54;7.03;71.22
64924;HTU21D;51436;44.692;39.214;2023-02-01T16:24:21;7.00;71.35
64924;HTU21D;51436;44.692;39.214;2023-02-01T18:25:25;6.46;71.74
64924;HTU21D;51436;44.692;39.214;2023-02-01T18:27:53;6.46;71.82
64924;HTU21D;51436;44.692;39.214;2023-02-01T18:30:27;6.50;71.80
64924;HTU21D;51436;44.692;39.214;2023-02-01T18:32:55;6.51;71.88
64924;HTU21D;51436;44.692;39.214;2023-02-01T18:35:25;6.51;71.83
64924;HTU21D;51436;44.692;39.214;2023-02-01T18:37:51;6.46;72.03
64924;HTU21D;51436;44.692;39.214;2023-02-01T18:40:29;6.43;71.98
64924;HTU21D;51436;44.692;39.214;2023-02-01T18:42:58;6.45;72.15
64924;HTU21D;51436;44.692;39.214;2023-02-01T18:45:42;6.46;71.86
64924;HTU21D;51436;44.692;39.214;2023-02-01T18:48:14;6.46;72.05
64924;HTU21D;51436;44.692;39.214;2023-02-01T18:50:43;6.43;72.22
64924;HTU21D;51436;44.692;39.214;2023-02-01T18:53:12;6.44;72.26
64924;HTU21D;51436;44.692;39.214;2023-02-01T18:55:39;6.46;72.26
64924;HTU21D;51436;44.692;39.214;2023-02-01T18:58:06;6.46;72.33
64924;HTU21D;51436;44.692;39.214;2023-02-01T19:00:34;6.48;72.35
64924;HTU21D;51436;44.692;39.214;2023-02-01T19:03:00;6.52;72.29
64924;HTU21D;51436;44.692;39.214;2023-02-01T19:05:27;6.56;72.09
64924;HTU21D;51436;44.692;39.214;2023-02-01T19:07:53;6.48;72.24
64924;HTU21D;51436;44.692;39.214;2023-02-01T19:10:21;6.41;72.48
64924;HTU21D;51436;44.692;39.214;2023-02-01T19:12:49;6.33;72.65
64924;HTU21D;51436;44.692;39.214;2023-02-01T19:15:16;6.28;72.73
64924;HTU21D;51436;44.692;39.214;2023-02-01T19:17:45;6.20;72.78
64924;HTU21D;51436;44.692;39.214;2023-02-01T19:20:17;6.15;73.02
64924;HTU21D;51436;44.692;39.214;2023-02-01T19:22:44;6.12;73.01
64924;HTU21D;51436;44.692;39.214;2023-02-01T19:25:20;6.11;72.81
64924;HTU21D;51436;44.692;39.214;2023-02-01T19:27:48;6.08;72.98
64924;HTU21D;51436;44.692;39.214;2023-02-01T19:30:16;6.08;73.03
64924;HTU21D;51436;44.692;39.214;2023-02-01T19:32:46;6.07;73.03
64924;HTU21D;51436;44.692;39.214;2023-02-01T19:35:14;6.02;73.03
64924;HTU21D;51436;44.692;39.214;2023-02-01T19:37:45;5.93;73.36
64924;HTU21D;51436;44.692;39.214;2023-02-01T19:40:15;5.85;73.43
64924;HTU21D;51436;44.692;39.214;2023-02-01T19:42:42;5.82;73.46
64924;HTU21D;51436;44.692;39.214;2023-02-01T19:45:09;5.72;73.51
64924;HTU21D;51436;44.692;39.214;2023-02-01T19:47:36;5.63;73.61
64924;HTU21D;51436;44.692;39.214;2023-02-01T19:50:02;5.57;73.72
64924;HTU21D;51436;44.692;39.214;2023-02-01T19:52:34;5.50;73.69
64924;HTU21D;51436;44.692;39.214;2023-02-01T19:55:02;5.50;73.75
64924;HTU21D;51436;44.692;39.214;2023-02-01T19:57:29;5.45;73.64
64924;HTU21D;51436;44.692;39.214;2023-02-01T19:59:58;5.38;73.73
64924;HTU21D;51436;44.692;39.214;2023-02-01T20:02:25;5.38;73.59
64924;HTU21D;51436;44.692;39.214;2023-02-01T20:04:54;5.32;73.63
64924;HTU21D;51436;44.692;39.214;2023-02-01T20:07:21;5.30;73.68
64924;HTU21D;51436;44.692;39.214;2023-02-01T20:09:47;5.27;73.55
64924;HTU21D;51436;44.692;39.214;2023-02-01T20:12:14;5.13;73.61
64924;HTU21D;51436;44.692;39.214;2023-02-01T20:14:40;5.05;73.80
64924;HTU21D;51436;44.692;39.214;2023-02-01T20:17:07;4.98;73.84
64924;HTU21D;51436;44.692;39.214;2023-02-01T20:19:34;4.91;73.83
64924;HTU21D;51436;44.692;39.214;2023-02-01T20:22:01;4.89;73.90
64924;HTU21D;51436;44.692;39.214;2023-02-01T20:24:27;4.87;73.87
64924;HTU21D;51436;44.692;39.214;2023-02-01T20:26:53;4.84;73.72
64924;HTU21D;51436;44.692;39.214;2023-02-01T20:29:20;4.79;73.77
64924;HTU21D;51436;44.692;39.214;2023-02-01T20:31:47;4.74;73.92
64924;HTU21D;51436;44.692;39.214;2023-02-01T20:34:14;4.78;73.85